createdAt,value
2023-08-16T00:01:36.804Z,5.73
2023-08-16T00:04:06.768Z,6.50
2023-08-16T00:06:34.828Z,6.60
2023-08-16T00:09:03.797Z,6.60
2023-08-16T00:11:31.659Z,6.03
2023-08-16T00:13:59.677Z,6.37
2023-08-16T00:16:28.108Z,6.23
2023-08-16T00:18:56.060Z,6.53
2023-08-16T00:21:25.419Z,6.77
2023-08-16T00:23:53.492Z,5.97
2023-08-16T00:26:21.695Z,6.13
2023-08-16T00:28:49.762Z,6.10
2023-08-16T00:31:17.894Z,6.40
2023-08-16T00:33:45.821Z,6.20
2023-08-16T00:36:13.736Z,6.37
2023-08-16T00:38:44.571Z,6.33
2023-08-16T00:41:15.267Z,6.03
2023-08-16T00:43:43.298Z,6.60
2023-08-16T00:46:13.797Z,6.20
2023-08-16T00:48:44.225Z,6.33
2023-08-16T00:51:13.201Z,6.73
2023-08-16T00:53:43.481Z,6.40
2023-08-16T00:56:11.487Z,6.13
2023-08-16T00:58:39.666Z,6.23
2023-08-16T01:01:08.270Z,5.87
2023-08-16T01:03:36.950Z,6.00
2023-08-16T01:06:06.244Z,6.63
2023-08-16T01:08:34.848Z,6.57
2023-08-16T01:11:12.959Z,6.57
2023-08-16T01:13:48.330Z,5.80
2023-08-16T01:16:17.255Z,6.13
2023-08-16T01:18:46.549Z,6.13
2023-08-16T01:21:17.566Z,6.07
2023-08-16T01:23:55.392Z,6.53
2023-08-16T01:26:30.848Z,6.30
2023-08-16T01:29:01.104Z,6.77
2023-08-16T01:31:29.322Z,6.60
2023-08-16T01:33:58.201Z,6.27
2023-08-16T01:36:26.204Z,6.80
2023-08-16T01:38:54.361Z,6.73
2023-08-16T01:41:26.946Z,6.50
2023-08-16T01:43:58.322Z,6.50
2023-08-16T01:46:28.130Z,6.97
2023-08-16T01:48:58.160Z,6.40
2023-08-16T01:51:26.536Z,7.70
2023-08-16T01:53:55.647Z,7.43
2023-08-16T01:56:24.015Z,7.53
2023-08-16T01:58:51.954Z,7.43
2023-08-16T02:01:21.251Z,7.60
2023-08-16T02:03:49.339Z,7.77
2023-08-16T02:06:17.439Z,7.60
2023-08-16T02:08:45.357Z,7.73
2023-08-16T02:11:13.474Z,7.53
2023-08-16T02:13:43.930Z,8.10
2023-08-16T02:16:11.844Z,8.63
2023-08-16T02:18:41.629Z,8.00
2023-08-16T02:21:09.522Z,8.93
2023-08-16T02:23:37.543Z,8.50
2023-08-16T02:26:05.419Z,9.37
2023-08-16T02:28:33.306Z,9.77
2023-08-16T02:31:07.914Z,11.13
2023-08-16T02:33:36.030Z,11.57
2023-08-16T02:36:05.930Z,10.37
2023-08-16T02:38:33.869Z,11.30
2023-08-16T02:41:01.756Z,12.60
2023-08-16T02:43:29.692Z,11.97
2023-08-16T02:45:59.092Z,12.23
2023-08-16T02:48:27.262Z,12.50
2023-08-16T02:50:55.604Z,13.13
2023-08-16T02:53:24.873Z,13.07
2023-08-16T02:55:52.914Z,12.73
2023-08-16T02:58:20.812Z,12.40
2023-08-16T03:00:51.585Z,12.27
2023-08-16T03:03:20.169Z,13.00
2023-08-16T03:05:48.232Z,12.80
2023-08-16T03:08:16.079Z,12.40
2023-08-16T03:10:45.376Z,13.10
2023-08-16T03:13:13.262Z,13.03
2023-08-16T03:15:41.120Z,14.47
2023-08-16T03:18:09.013Z,14.73
2023-08-16T03:20:37.262Z,14.23
2023-08-16T03:23:05.411Z,13.87
2023-08-16T03:25:33.389Z,13.33
2023-08-16T03:28:02.621Z,13.63
2023-08-16T03:30:30.581Z,13.07
2023-08-16T03:32:58.608Z,13.63
2023-08-16T03:35:26.795Z,14.30
2023-08-16T03:37:54.860Z,15.07
2023-08-16T03:40:22.745Z,14.67
2023-08-16T03:42:50.638Z,13.47
2023-08-16T03:45:24.348Z,13.47
2023-08-16T03:47:53.115Z,13.47
2023-08-16T03:50:21.363Z,13.77
2023-08-16T03:52:49.306Z,14.13
2023-08-16T03:55:17.344Z,13.57
2023-08-16T03:57:45.242Z,15.23
2023-08-16T04:00:16.573Z,15.27
2023-08-16T04:02:45.905Z,13.67
2023-08-16T04:05:15.463Z,12.43
2023-08-16T04:07:43.536Z,13.00
2023-08-16T04:10:12.638Z,13.63
2023-08-16T04:12:40.659Z,15.33
2023-08-16T04:15:10.458Z,13.90
2023-08-16T04:17:38.399Z,15.17
2023-08-16T04:20:09.092Z,14.17
2023-08-16T04:22:37.090Z,14.30
2023-08-16T04:25:05.669Z,13.60
2023-08-16T04:27:33.723Z,14.17
2023-08-16T04:30:01.586Z,12.90
2023-08-16T04:32:30.432Z,12.23
2023-08-16T04:34:58.309Z,12.80
2023-08-16T04:37:27.553Z,12.70
2023-08-16T04:39:55.512Z,13.70
2023-08-16T04:42:23.630Z,12.93
2023-08-16T04:44:51.592Z,12.57
2023-08-16T04:47:19.614Z,12.80
2023-08-16T04:49:47.558Z,12.13
2023-08-16T04:52:15.450Z,12.03
2023-08-16T04:54:44.741Z,11.87
2023-08-16T04:57:12.693Z,11.47
2023-08-16T04:59:39.637Z,12.63
2023-08-16T05:02:07.595Z,12.83
2023-08-16T05:04:35.512Z,12.33
2023-08-16T05:07:03.430Z,11.97
2023-08-16T05:09:31.403Z,12.30
2023-08-16T05:12:01.771Z,12.63
2023-08-16T05:14:29.694Z,12.63
2023-08-16T05:16:57.602Z,13.43
2023-08-16T05:19:25.565Z,12.77
2023-08-16T05:21:53.566Z,14.03
2023-08-16T05:24:21.650Z,15.53
2023-08-16T05:26:49.589Z,15.13
2023-08-16T05:29:18.877Z,14.00
2023-08-16T05:31:46.821Z,14.90
2023-08-16T05:34:17.160Z,15.13
2023-08-16T05:36:49.234Z,15.63
2023-08-16T05:39:17.145Z,13.60
2023-08-16T05:41:45.080Z,15.77
2023-08-16T05:44:12.992Z,14.90
2023-08-16T05:46:42.316Z,14.70
2023-08-16T05:49:10.343Z,14.60
2023-08-16T05:51:38.306Z,14.73
2023-08-16T05:54:06.653Z,14.57
2023-08-16T05:56:34.624Z,14.13
2023-08-16T05:59:02.550Z,14.87
2023-08-16T06:01:30.482Z,15.43
2023-08-16T06:03:59.843Z,14.20
2023-08-16T06:06:27.806Z,14.63
2023-08-16T06:08:55.697Z,14.10
2023-08-16T06:11:23.579Z,15.93
2023-08-16T06:13:51.535Z,15.30
2023-08-16T06:16:19.441Z,14.80
2023-08-16T06:18:47.616Z,16.03
2023-08-16T06:21:16.886Z,16.17
2023-08-16T06:23:44.763Z,16.70
2023-08-16T06:26:12.705Z,17.03
2023-08-16T06:28:40.593Z,18.70
2023-08-16T06:31:08.597Z,19.40
2023-08-16T06:33:38.244Z,16.40
2023-08-16T06:36:06.900Z,16.13
2023-08-16T06:38:36.102Z,16.57
2023-08-16T06:41:03.996Z,17.67
2023-08-16T06:43:31.858Z,17.90
2023-08-16T06:45:59.780Z,18.07
2023-08-16T06:48:27.701Z,17.27
2023-08-16T06:50:56.068Z,18.07
2023-08-16T06:53:24.226Z,17.23
2023-08-16T06:55:55.205Z,15.60
2023-08-16T06:58:23.389Z,15.20
2023-08-16T07:00:51.515Z,15.80
2023-08-16T07:03:19.812Z,17.50
2023-08-16T07:05:47.885Z,15.97
2023-08-16T07:08:15.882Z,16.83
2023-08-16T07:10:45.463Z,16.63
2023-08-16T07:13:15.391Z,17.73
2023-08-16T07:15:43.777Z,17.40
2023-08-16T07:18:12.090Z,17.60
2023-08-16T07:20:40.773Z,17.03
2023-08-16T07:23:08.716Z,18.97
2023-08-16T07:25:38.787Z,16.53
2023-08-16T07:28:07.707Z,16.60
2023-08-16T07:30:39.350Z,18.53
2023-08-16T07:33:07.644Z,18.17
2023-08-16T07:35:35.612Z,18.43
2023-08-16T07:38:04.933Z,17.53
2023-08-16T07:40:32.987Z,18.23
2023-08-16T07:43:01.055Z,18.03
2023-08-16T07:45:29.070Z,20.13
2023-08-16T07:47:58.454Z,21.23
2023-08-16T07:50:26.394Z,22.57
2023-08-16T07:52:54.229Z,22.43
2023-08-16T07:55:30.153Z,23.60
2023-08-16T07:57:58.091Z,21.23
2023-08-16T08:00:26.213Z,21.33
2023-08-16T08:02:59.843Z,19.53
2023-08-16T08:05:31.585Z,19.43
2023-08-16T08:08:01.758Z,17.33
2023-08-16T08:10:30.571Z,15.77
2023-08-16T08:12:58.593Z,14.23
2023-08-16T08:15:26.882Z,13.53
2023-08-16T08:17:54.855Z,15.63
2023-08-16T08:20:22.769Z,15.57
2023-08-16T08:22:52.032Z,14.60
2023-08-16T08:25:20.096Z,14.10
2023-08-16T08:27:48.003Z,13.23
2023-08-16T08:30:18.229Z,11.93
2023-08-16T08:32:46.304Z,10.10
2023-08-16T08:35:14.251Z,9.57
2023-08-16T08:37:42.168Z,8.40
2023-08-16T08:40:11.747Z,8.07
2023-08-16T08:42:41.621Z,7.07
2023-08-16T08:45:10.860Z,8.07
2023-08-16T08:47:39.971Z,7.10
2023-08-16T08:50:08.913Z,7.07
2023-08-16T08:52:36.885Z,7.03
2023-08-16T08:55:05.254Z,6.43
2023-08-16T08:57:36.721Z,7.70
2023-08-16T09:00:09.754Z,8.63
2023-08-16T09:02:39.483Z,8.93
2023-08-16T09:05:11.419Z,8.63
2023-08-16T09:07:41.687Z,10.33
2023-08-16T09:10:10.873Z,9.20
2023-08-16T09:12:41.189Z,10.67
2023-08-16T09:15:09.832Z,9.63
2023-08-16T09:17:37.796Z,9.03
2023-08-16T09:20:07.544Z,9.23
2023-08-16T09:22:36.470Z,8.93
2023-08-16T09:25:04.718Z,8.03
2023-08-16T09:27:34.360Z,8.10
2023-08-16T09:30:04.010Z,9.83
2023-08-16T09:32:35.464Z,11.30
2023-08-16T09:35:04.066Z,10.87
2023-08-16T09:37:32.843Z,9.57
2023-08-16T09:40:01.090Z,10.13
2023-08-16T09:42:35.783Z,10.40
2023-08-16T09:45:05.992Z,11.20
2023-08-16T09:50:10.464Z,10.80
2023-08-16T09:52:39.015Z,10.17
2023-08-16T09:55:09.034Z,9.40
2023-08-16T09:57:37.486Z,9.80
2023-08-16T10:00:08.874Z,10.10
2023-08-16T10:05:09.548Z,9.10
2023-08-16T10:07:41.227Z,8.93
2023-08-16T10:10:11.383Z,8.77
2023-08-16T10:12:39.720Z,8.87
2023-08-16T10:15:10.337Z,8.60
2023-08-16T10:17:40.855Z,7.80
2023-08-16T10:20:16.958Z,7.63
2023-08-16T10:22:47.993Z,8.30
2023-08-16T10:25:18.528Z,7.70
2023-08-16T10:27:47.878Z,8.40
2023-08-16T10:30:23.180Z,8.47
2023-08-16T10:32:54.713Z,8.73
2023-08-16T10:35:23.142Z,8.93
2023-08-16T10:37:54.736Z,7.53
2023-08-16T10:40:27.196Z,8.37
2023-08-16T10:42:57.107Z,7.27
2023-08-16T10:48:13.409Z,7.40
2023-08-16T10:50:45.818Z,6.90
2023-08-16T10:53:19.934Z,6.60
2023-08-16T10:55:54.069Z,6.93
2023-08-16T10:58:24.310Z,6.37
2023-08-16T11:00:59.264Z,6.17
2023-08-16T11:03:34.106Z,5.60
2023-08-16T11:06:08.308Z,5.67
2023-08-16T11:08:36.516Z,5.50
2023-08-16T11:11:04.612Z,5.00
2023-08-16T11:13:32.618Z,5.80
2023-08-16T11:16:02.406Z,5.50
2023-08-16T11:18:34.445Z,5.20
2023-08-16T11:21:04.882Z,4.90
2023-08-16T11:23:33.943Z,6.07
2023-08-16T11:26:02.857Z,6.97
2023-08-16T11:28:31.370Z,9.13
2023-08-16T11:31:01.758Z,8.67
2023-08-16T11:33:33.480Z,10.23
2023-08-16T11:36:02.031Z,10.00
2023-08-16T11:38:30.593Z,9.63
2023-08-16T11:40:58.555Z,9.60
2023-08-16T11:43:30.117Z,10.33
2023-08-16T11:45:58.850Z,10.37
2023-08-16T11:48:30.779Z,10.27
2023-08-16T11:50:59.502Z,9.90
2023-08-16T11:53:33.196Z,9.90
2023-08-16T11:56:02.465Z,9.33
2023-08-16T11:58:31.123Z,9.87
2023-08-16T12:01:05.156Z,9.73
2023-08-16T12:03:36.403Z,10.60
2023-08-16T12:06:07.359Z,10.10
2023-08-16T12:08:35.561Z,8.90
2023-08-16T12:11:04.262Z,8.53
2023-08-16T12:13:35.914Z,9.27
2023-08-16T12:16:03.906Z,9.77
2023-08-16T12:18:36.516Z,10.37
2023-08-16T12:21:04.698Z,9.77
2023-08-16T12:23:32.584Z,9.90
2023-08-16T12:26:00.524Z,10.47
2023-08-16T12:28:28.542Z,10.83
2023-08-16T12:30:56.465Z,10.03
2023-08-16T12:33:24.452Z,11.80
2023-08-16T12:35:53.911Z,9.93
2023-08-16T12:38:21.824Z,11.87
2023-08-16T12:40:50.733Z,11.90
2023-08-16T12:43:19.868Z,11.33
2023-08-16T12:45:47.956Z,10.53
2023-08-16T12:48:16.039Z,12.33
2023-08-16T12:50:44.019Z,9.97
2023-08-16T12:53:28.305Z,11.33
2023-08-16T12:55:56.845Z,10.73
2023-08-16T12:58:33.435Z,11.40
2023-08-16T13:03:34.149Z,10.50
2023-08-16T13:08:49.819Z,10.50
2023-08-16T13:13:49.503Z,11.93
2023-08-16T13:16:30.310Z,11.70
2023-08-16T13:24:34.054Z,10.47
2023-08-16T13:27:07.639Z,10.87
2023-08-16T13:40:02.258Z,10.40
2023-08-16T13:47:32.410Z,9.83
2023-08-16T13:50:00.441Z,9.00
2023-08-16T13:52:28.577Z,9.93
2023-08-16T13:54:58.197Z,9.57
2023-08-16T13:57:26.864Z,10.07
2023-08-16T13:59:54.882Z,9.30
2023-08-16T14:02:22.815Z,9.20
2023-08-16T14:04:50.815Z,9.47
2023-08-16T14:07:18.830Z,9.80
2023-08-16T14:09:46.792Z,9.73
2023-08-16T14:12:16.040Z,9.90
2023-08-16T14:14:43.935Z,9.20
2023-08-16T14:17:11.902Z,9.23
2023-08-16T14:19:39.911Z,9.30
2023-08-16T14:22:07.870Z,9.23
2023-08-16T14:24:35.760Z,9.10
2023-08-16T14:27:03.673Z,8.90
2023-08-16T14:29:32.878Z,9.20
2023-08-16T14:32:00.788Z,8.27
2023-08-16T14:34:28.737Z,8.17
2023-08-16T14:36:56.818Z,8.07
2023-08-16T14:39:25.567Z,9.10
2023-08-16T14:41:53.601Z,8.23
2023-08-16T14:44:21.656Z,8.43
2023-08-16T14:46:50.941Z,8.17
2023-08-16T14:49:20.266Z,8.37
2023-08-16T14:51:48.535Z,8.53
2023-08-16T14:54:16.483Z,8.20
2023-08-16T14:56:44.405Z,8.30
2023-08-16T14:59:12.359Z,8.47
2023-08-16T15:01:40.344Z,8.37
2023-08-16T15:04:09.708Z,8.30
2023-08-16T15:06:37.698Z,7.90
2023-08-16T15:09:07.480Z,7.90
2023-08-16T15:11:35.838Z,8.60
2023-08-16T15:14:04.223Z,8.10
2023-08-16T15:16:32.910Z,9.07
2023-08-16T15:19:00.962Z,7.90
2023-08-16T15:21:30.298Z,8.70
2023-08-16T15:23:58.208Z,8.80
2023-08-16T15:26:26.108Z,7.70
2023-08-16T15:28:54.128Z,8.07
2023-08-16T15:31:22.093Z,9.07
2023-08-16T15:33:51.116Z,7.83
2023-08-16T15:36:19.210Z,8.53
2023-08-16T15:38:52.642Z,8.37
2023-08-16T15:41:22.416Z,7.53
2023-08-16T15:43:50.578Z,7.93
2023-08-16T15:46:19.507Z,7.53
2023-08-16T15:48:47.694Z,7.53
2023-08-16T15:51:15.639Z,7.57
2023-08-16T15:53:43.624Z,8.37
2023-08-16T15:56:12.855Z,7.43
2023-08-16T15:58:40.805Z,7.93
2023-08-16T16:01:08.996Z,7.17
2023-08-16T16:03:37.027Z,7.20
2023-08-16T16:06:05.386Z,6.40
2023-08-16T16:08:35.408Z,6.53
2023-08-16T16:11:03.452Z,7.33
2023-08-16T16:13:32.707Z,6.83
2023-08-16T16:16:00.619Z,6.60
2023-08-16T16:18:28.604Z,6.83
2023-08-16T16:20:58.136Z,6.37
2023-08-16T16:23:26.168Z,5.83
2023-08-16T16:25:54.298Z,6.07
2023-08-16T16:28:22.466Z,6.10
2023-08-16T16:30:51.764Z,6.30
2023-08-16T16:33:19.667Z,6.13
2023-08-16T16:35:47.591Z,5.90
2023-08-16T16:38:15.506Z,5.70
2023-08-16T16:40:43.405Z,5.70
2023-08-16T16:43:11.390Z,5.43
2023-08-16T16:45:39.399Z,5.50
2023-08-16T16:48:09.007Z,5.77
2023-08-16T16:50:37.148Z,5.80
2023-08-16T16:53:05.436Z,5.53
2023-08-16T16:55:33.391Z,6.03
2023-08-16T16:58:01.781Z,5.47
2023-08-16T17:00:30.388Z,5.33
2023-08-16T17:03:01.440Z,4.97
2023-08-16T17:05:31.147Z,4.70
2023-08-16T17:07:59.304Z,5.50
2023-08-16T17:10:27.417Z,5.17
2023-08-16T17:12:55.292Z,4.87
2023-08-16T17:15:23.243Z,4.83
2023-08-16T17:17:51.242Z,4.80
2023-08-16T17:20:19.499Z,5.10
2023-08-16T17:22:49.814Z,5.20
2023-08-16T17:25:19.168Z,4.90
2023-08-16T17:27:47.451Z,4.70
2023-08-16T17:30:15.559Z,4.73
2023-08-16T17:32:43.540Z,4.53
2023-08-16T17:35:11.478Z,4.33
2023-08-16T17:37:39.649Z,4.70
2023-08-16T17:40:10.522Z,4.77
2023-08-16T17:42:38.530Z,5.37
2023-08-16T17:45:07.627Z,4.27
2023-08-16T17:47:38.243Z,4.53
2023-08-16T17:50:07.692Z,4.93
2023-08-16T17:52:35.627Z,5.70
2023-08-16T17:55:03.692Z,4.30
2023-08-16T17:57:33.003Z,4.10
2023-08-16T18:00:01.064Z,4.30
2023-08-16T18:02:29.270Z,4.50
2023-08-16T18:04:57.237Z,4.57
2023-08-16T18:07:25.338Z,4.20
2023-08-16T18:09:53.909Z,3.87
2023-08-16T18:12:21.956Z,3.97
2023-08-16T18:14:51.168Z,3.80
2023-08-16T18:17:19.098Z,4.10
2023-08-16T18:19:47.085Z,4.10
2023-08-16T18:22:15.107Z,3.97
2023-08-16T18:24:43.066Z,3.90
2023-08-16T18:27:11.091Z,3.67
2023-08-16T18:29:40.114Z,3.67
2023-08-16T18:32:09.671Z,3.60
2023-08-16T18:34:37.707Z,3.87
2023-08-16T18:37:05.645Z,3.40
2023-08-16T18:39:33.620Z,3.60
2023-08-16T18:42:04.659Z,3.60
2023-08-16T18:44:33.645Z,3.53
2023-08-16T18:47:02.655Z,3.30
2023-08-16T18:49:31.922Z,4.13
2023-08-16T18:51:59.949Z,3.67
2023-08-16T18:54:27.830Z,3.70
2023-08-16T18:56:55.801Z,4.03
2023-08-16T18:59:23.732Z,3.30
2023-08-16T19:01:51.650Z,3.77
2023-08-16T19:04:20.588Z,4.07
2023-08-16T19:06:49.962Z,3.60
2023-08-16T19:09:17.975Z,3.80
2023-08-16T19:11:45.878Z,3.30
2023-08-16T19:14:14.007Z,3.60
2023-08-16T19:16:41.970Z,3.57
2023-08-16T19:19:13.841Z,3.83
2023-08-16T19:21:41.841Z,3.73
2023-08-16T19:24:11.133Z,4.00
2023-08-16T19:26:39.049Z,3.80
2023-08-16T19:29:07.439Z,3.83
2023-08-16T19:31:35.349Z,3.97
2023-08-16T19:34:03.270Z,3.80
2023-08-16T19:36:31.278Z,4.20
2023-08-16T19:38:59.292Z,3.70
2023-08-16T19:41:28.537Z,4.03
2023-08-16T19:43:58.924Z,4.53
2023-08-16T19:46:27.437Z,4.27
2023-08-16T19:48:55.303Z,4.13
2023-08-16T19:51:26.153Z,4.13
2023-08-16T19:53:54.077Z,4.40
2023-08-16T19:56:22.121Z,4.43
2023-08-16T19:58:51.405Z,4.60
2023-08-16T20:01:21.077Z,4.40
2023-08-16T20:03:49.272Z,5.00
2023-08-16T20:06:17.192Z,4.37
2023-08-16T20:08:45.077Z,4.50
2023-08-16T20:11:13.017Z,5.07
2023-08-16T20:13:40.900Z,4.30
2023-08-16T20:16:10.186Z,5.30
2023-08-16T20:18:38.091Z,5.17
2023-08-16T20:21:05.997Z,4.30
2023-08-16T20:23:33.909Z,4.33
2023-08-16T20:26:01.946Z,4.30
2023-08-16T20:28:29.811Z,4.30
2023-08-16T20:30:57.729Z,4.70
2023-08-16T20:33:27.071Z,4.67
2023-08-16T20:35:56.345Z,4.73
2023-08-16T20:38:24.470Z,4.23
2023-08-16T20:40:52.929Z,4.73
2023-08-16T20:43:21.418Z,4.67
2023-08-16T20:45:49.449Z,5.00
2023-08-16T20:48:17.723Z,4.93
2023-08-16T20:50:46.974Z,4.73
2023-08-16T20:53:14.909Z,5.17
2023-08-16T20:55:42.794Z,4.73
2023-08-16T20:58:10.698Z,5.13
2023-08-16T21:00:40.004Z,5.60
2023-08-16T21:03:08.010Z,5.27
2023-08-16T21:05:36.004Z,5.90
2023-08-16T21:08:05.948Z,5.13
2023-08-16T21:10:33.915Z,5.37
2023-08-16T21:13:01.852Z,5.47
2023-08-16T21:15:29.741Z,5.07
2023-08-16T21:17:57.698Z,5.20
2023-08-16T21:20:26.213Z,4.90
2023-08-16T21:22:54.297Z,5.37
2023-08-16T21:25:23.574Z,5.20
2023-08-16T21:27:52.093Z,5.57
2023-08-16T21:30:20.021Z,5.23
2023-08-16T21:32:48.006Z,5.40
2023-08-16T21:35:16.594Z,6.03
2023-08-16T21:37:45.347Z,5.43
2023-08-16T21:40:13.834Z,5.23
2023-08-16T21:42:43.571Z,5.67
2023-08-16T21:45:12.238Z,5.67
2023-08-16T21:47:40.208Z,5.40
2023-08-16T21:50:09.005Z,6.03
2023-08-16T21:52:37.358Z,5.27
2023-08-16T21:55:05.943Z,5.73
2023-08-16T21:57:34.247Z,5.30
2023-08-16T22:00:03.893Z,5.20
2023-08-16T22:02:31.814Z,5.73
2023-08-16T22:04:59.723Z,4.40
2023-08-16T22:07:28.212Z,4.80
2023-08-16T22:09:56.230Z,4.30
2023-08-16T22:12:24.099Z,4.93
2023-08-16T22:14:52.004Z,4.20
2023-08-16T22:17:21.254Z,4.70
2023-08-16T22:19:49.121Z,4.30
2023-08-16T22:22:16.994Z,4.10
2023-08-16T22:24:44.864Z,4.47
2023-08-16T22:27:12.790Z,4.40
2023-08-16T22:29:40.685Z,4.27
2023-08-16T22:32:08.615Z,4.60
2023-08-16T22:34:37.858Z,5.17
2023-08-16T22:37:05.940Z,4.70
2023-08-16T22:39:33.874Z,4.40
2023-08-16T22:42:01.767Z,4.90
2023-08-16T22:44:29.696Z,5.10
2023-08-16T22:46:57.617Z,4.73
2023-08-16T22:49:25.664Z,4.90
2023-08-16T22:51:54.915Z,4.77
2023-08-16T22:54:22.834Z,4.83
2023-08-16T22:56:50.708Z,4.70
2023-08-16T22:59:20.185Z,4.83
2023-08-16T23:01:48.131Z,4.70
2023-08-16T23:04:16.157Z,4.70
2023-08-16T23:06:44.219Z,4.70
2023-08-16T23:09:13.518Z,4.97
2023-08-16T23:11:41.370Z,5.23
2023-08-16T23:14:09.248Z,4.90
2023-08-16T23:16:37.217Z,5.80
2023-08-16T23:19:08.576Z,5.37
2023-08-16T23:21:36.617Z,4.77
2023-08-16T23:24:04.841Z,5.10
2023-08-16T23:26:34.088Z,5.30
2023-08-16T23:29:02.037Z,5.33
2023-08-16T23:31:29.881Z,5.13
2023-08-16T23:33:57.774Z,5.47
2023-08-16T23:36:25.784Z,5.37
2023-08-16T23:38:53.667Z,5.30
2023-08-16T23:41:21.572Z,5.40
2023-08-16T23:43:50.848Z,5.40
2023-08-16T23:46:18.808Z,5.20
2023-08-16T23:48:46.743Z,4.93
2023-08-16T23:51:14.701Z,4.97
2023-08-16T23:53:42.626Z,5.00
2023-08-16T23:56:10.503Z,5.70
2023-08-16T23:58:38.359Z,6.20
